createdAt,value
2018-06-25T00:01:17.736Z,97419.70
2018-06-25T00:03:48.152Z,97415.34
2018-06-25T00:06:18.843Z,97416.20
2018-06-25T00:08:54.335Z,97414.30
2018-06-25T00:11:42.553Z,97409.91
2018-06-25T00:14:17.635Z,97408.79
2018-06-25T00:16:48.251Z,97401.33
2018-06-25T00:19:18.508Z,97400.11
2018-06-25T00:21:49.657Z,97398.47
2018-06-25T00:24:26.478Z,97399.33
2018-06-25T00:27:00.298Z,97389.42
2018-06-25T00:29:30.817Z,97392.87
2018-06-25T00:32:01.374Z,97383.73
2018-06-25T00:34:59.978Z,97378.70
2018-06-25T00:37:32.052Z,97377.53
2018-06-25T00:40:02.408Z,97374.07
2018-06-25T00:42:33.181Z,97372.93
2018-06-25T00:45:04.147Z,97370.40
2018-06-25T00:47:34.677Z,97372.88
2018-06-25T00:50:05.455Z,97367.00
2018-06-25T00:52:36.365Z,97372.06
2018-06-25T00:57:54.995Z,97381.49
2018-06-25T01:00:25.448Z,97380.63
2018-06-25T01:02:57.677Z,97378.90
2018-06-25T01:05:28.160Z,97376.86
2018-06-25T01:07:58.555Z,97374.91
2018-06-25T01:10:28.990Z,97376.02
2018-06-25T01:12:59.710Z,97373.84
2018-06-25T01:18:36.215Z,97368.51
2018-06-25T01:21:06.628Z,97367.44
2018-06-25T01:23:41.217Z,97370.99
2018-06-25T01:26:11.715Z,97362.34
2018-06-25T01:28:42.097Z,97364.77
2018-06-25T01:31:14.248Z,97359.80
2018-06-25T01:38:07.783Z,97352.47
2018-06-25T01:40:40.453Z,97348.08
2018-06-25T01:43:11.371Z,97347.64
2018-06-25T01:45:41.980Z,97349.56
2018-06-25T01:48:12.748Z,97346.88
2018-06-25T01:50:43.238Z,97345.27
2018-06-25T01:53:15.110Z,97343.65
2018-06-25T01:55:45.615Z,97352.84
2018-06-25T01:58:16.099Z,97342.52
2018-06-25T02:00:48.965Z,97345.48
2018-06-25T02:03:21.128Z,97341.77
2018-06-25T02:05:51.635Z,97340.37
2018-06-25T02:08:22.933Z,97342.12
2018-06-25T02:10:55.528Z,97333.47
2018-06-25T02:13:26.356Z,97336.19
2018-06-25T02:15:57.124Z,97335.93
2018-06-25T02:18:27.748Z,97337.86
2018-06-25T02:20:58.155Z,97338.11
2018-06-25T02:23:46.086Z,97330.97
2018-06-25T02:26:40.643Z,97329.50
2018-06-25T02:29:11.478Z,97326.97
2018-06-25T02:31:41.777Z,97326.23
2018-06-25T02:34:13.094Z,97324.85
2018-06-25T02:37:00.721Z,97326.80
2018-06-25T02:43:08.536Z,97325.92
2018-06-25T02:45:45.341Z,97328.10
2018-06-25T02:48:15.620Z,97322.39
2018-06-25T02:50:46.738Z,97320.50
2018-06-25T02:53:25.191Z,97317.31
2018-06-25T02:55:56.161Z,97316.77
2018-06-25T02:58:26.508Z,97321.53
2018-06-25T03:01:00.194Z,97320.28
2018-06-25T03:03:30.551Z,97318.75
2018-06-25T03:06:01.172Z,97320.68
2018-06-25T03:08:31.523Z,97318.63
2018-06-25T03:11:02.835Z,97322.36
2018-06-25T03:13:33.044Z,97328.64
2018-06-25T03:16:03.473Z,97327.63
2018-06-25T03:18:33.778Z,97333.66
2018-06-25T03:21:07.288Z,97328.03
2018-06-25T03:23:37.531Z,97323.66
2018-06-25T03:26:08.315Z,97322.58
2018-06-25T03:28:47.586Z,97318.79
2018-06-25T03:31:18.615Z,97327.19
2018-06-25T03:33:49.368Z,97325.22
2018-06-25T03:36:20.495Z,97324.14
2018-06-25T03:38:50.862Z,97328.75
2018-06-25T03:41:21.814Z,97325.22
2018-06-25T03:43:52.074Z,97329.29
2018-06-25T03:46:22.981Z,97335.25
2018-06-25T03:48:53.382Z,97334.17
2018-06-25T03:51:28.030Z,97336.07
2018-06-25T03:53:58.507Z,97332.26
2018-06-25T03:56:29.396Z,97336.84
2018-06-25T03:59:00.009Z,97339.55
2018-06-25T04:01:30.351Z,97337.38
2018-06-25T04:04:02.386Z,97348.05
2018-06-25T04:06:32.736Z,97345.66
2018-06-25T04:09:03.861Z,97347.59
2018-06-25T04:11:34.851Z,97345.70
2018-06-25T04:14:05.558Z,97348.70
2018-06-25T04:16:36.451Z,97349.50
2018-06-25T04:19:06.918Z,97346.23
2018-06-25T04:21:38.319Z,97349.19
2018-06-25T04:24:13.908Z,97350.78
2018-06-25T04:26:44.753Z,97345.57
2018-06-25T04:29:20.003Z,97340.59
2018-06-25T04:31:52.051Z,97337.29
2018-06-25T04:34:22.928Z,97344.30
2018-06-25T04:36:53.623Z,97348.05
2018-06-25T04:39:24.498Z,97352.55
2018-06-25T04:41:56.109Z,97355.14
2018-06-25T04:44:26.868Z,97353.89
2018-06-25T04:46:57.441Z,97357.78
2018-06-25T04:49:28.046Z,97361.03
2018-06-25T04:51:58.893Z,97357.58
2018-06-25T04:54:32.498Z,97362.09
2018-06-25T04:57:17.218Z,97357.36
2018-06-25T04:59:49.510Z,97357.69
2018-06-25T05:02:22.234Z,97354.58
2018-06-25T05:04:54.710Z,97353.84
2018-06-25T05:07:26.109Z,97354.06
2018-06-25T05:09:56.473Z,97362.67
2018-06-25T05:12:26.803Z,97361.09
2018-06-25T05:14:57.363Z,97364.61
2018-06-25T05:23:32.505Z,97355.97
2018-06-25T05:29:06.931Z,97360.05
2018-06-25T05:31:39.350Z,97363.64
2018-06-25T05:34:09.753Z,97366.39
2018-06-25T05:36:41.141Z,97359.91
2018-06-25T05:39:14.315Z,97360.22
2018-06-25T05:41:44.670Z,97354.54
2018-06-25T05:44:14.980Z,97347.59
2018-06-25T05:46:45.468Z,97349.68
2018-06-25T05:49:15.665Z,97350.98
2018-06-25T05:51:46.115Z,97348.48
2018-06-25T05:54:16.630Z,97341.66
2018-06-25T05:56:47.038Z,97344.91
2018-06-25T05:59:18.111Z,97345.11
2018-06-25T06:01:48.650Z,97341.52
2018-06-25T06:04:18.930Z,97349.80
2018-06-25T06:06:50.498Z,97339.41
2018-06-25T06:09:20.933Z,97343.47
2018-06-25T06:11:54.913Z,97343.27
2018-06-25T06:14:26.298Z,97344.03
2018-06-25T06:16:56.650Z,97346.83
2018-06-25T06:19:26.938Z,97354.25
2018-06-25T06:21:57.335Z,97354.63
2018-06-25T06:24:28.281Z,97350.33
2018-06-25T06:26:58.856Z,97350.89
2018-06-25T06:29:29.088Z,97346.26
2018-06-25T06:32:00.152Z,97345.20
2018-06-25T06:34:30.433Z,97347.00
2018-06-25T06:37:00.924Z,97344.54
2018-06-25T06:39:31.117Z,97345.35
2018-06-25T06:42:01.350Z,97342.59
2018-06-25T06:44:31.587Z,97342.83
2018-06-25T06:47:01.854Z,97338.83
2018-06-25T06:49:34.106Z,97340.34
2018-06-25T06:52:04.251Z,97344.20
2018-06-25T06:54:34.838Z,97345.66
2018-06-25T06:57:05.653Z,97341.91
2018-06-25T06:59:36.154Z,97342.91
2018-06-25T07:02:06.776Z,97337.92
2018-06-25T07:04:37.369Z,97350.20
2018-06-25T07:07:08.714Z,97343.10
2018-06-25T07:09:39.156Z,97333.41
2018-06-25T07:12:09.583Z,97336.98
2018-06-25T07:14:39.793Z,97334.82
2018-06-25T07:17:10.306Z,97337.09
2018-06-25T07:19:40.710Z,97336.06
2018-06-25T07:22:11.786Z,97339.25
2018-06-25T07:24:42.062Z,97341.11
2018-06-25T07:27:12.501Z,97341.19
2018-06-25T07:29:42.768Z,97340.63
2018-06-25T07:32:12.979Z,97336.94
2018-06-25T07:34:43.305Z,97341.75
2018-06-25T07:37:13.486Z,97342.97
2018-06-25T07:39:43.756Z,97339.05
2018-06-25T07:42:14.261Z,97346.72
2018-06-25T07:44:44.551Z,97341.59
2018-06-25T07:47:14.974Z,97341.59
2018-06-25T07:49:45.247Z,97336.13
2018-06-25T07:52:15.569Z,97339.02
2018-06-25T07:57:43.904Z,97331.41
2018-06-25T08:00:22.300Z,97327.81
2018-06-25T08:03:04.644Z,97331.55
2018-06-25T08:05:34.890Z,97337.64
2018-06-25T08:08:05.361Z,97341.57
2018-06-25T08:10:35.769Z,97338.59
2018-06-25T08:13:06.056Z,97333.06
2018-06-25T08:20:10.051Z,97345.09
2018-06-25T08:22:46.196Z,97344.38
2018-06-25T08:25:22.856Z,97347.06
2018-06-25T08:27:54.768Z,97340.53
2018-06-25T08:30:29.047Z,97348.65
2018-06-25T08:32:58.861Z,97344.04
2018-06-25T08:35:37.262Z,97342.58
2018-06-25T08:38:08.623Z,97337.52
2018-06-25T08:40:38.808Z,97342.82
2018-06-25T08:43:09.480Z,97330.39
2018-06-25T08:45:41.163Z,97339.73
2018-06-25T08:51:19.106Z,97333.42
2018-06-25T08:53:49.431Z,97336.04
2018-06-25T08:56:20.019Z,97336.28
2018-06-25T08:58:50.526Z,97342.16
2018-06-25T09:01:30.229Z,97342.02
2018-06-25T09:04:01.143Z,97339.41
2018-06-25T09:06:31.766Z,97342.69
2018-06-25T09:09:02.281Z,97330.16
2018-06-25T09:11:32.931Z,97334.07
2018-06-25T09:14:03.704Z,97335.22
2018-06-25T09:16:34.009Z,97330.69
2018-06-25T09:19:06.126Z,97332.39
2018-06-25T09:21:36.874Z,97329.55
2018-06-25T09:24:07.412Z,97340.30
2018-06-25T09:26:40.130Z,97327.17
2018-06-25T09:29:11.624Z,97333.09
2018-06-25T09:31:42.936Z,97339.21
2018-06-25T09:34:18.445Z,97324.36
2018-06-25T09:36:48.823Z,97329.45
2018-06-25T09:39:19.211Z,97327.88
2018-06-25T09:41:49.573Z,97327.62
2018-06-25T09:44:19.866Z,97332.50
2018-06-25T09:46:50.641Z,97327.82
2018-06-25T09:49:21.401Z,97330.06
2018-06-25T09:51:52.030Z,97330.63
2018-06-25T09:54:22.599Z,97326.36
2018-06-25T09:56:53.314Z,97323.52
2018-06-25T09:59:23.764Z,97326.34
2018-06-25T10:01:54.730Z,97322.08
2018-06-25T10:04:25.097Z,97327.67
2018-06-25T10:06:55.554Z,97320.30
2018-06-25T10:09:25.939Z,97325.41
2018-06-25T10:11:56.621Z,97314.48
2018-06-25T10:14:26.841Z,97324.32
2018-06-25T10:16:57.181Z,97316.89
2018-06-25T10:19:27.398Z,97316.20
2018-06-25T10:21:57.704Z,97316.66
2018-06-25T10:24:27.951Z,97307.98
2018-06-25T10:26:58.375Z,97319.45
2018-06-25T10:29:29.731Z,97321.02
2018-06-25T10:32:00.364Z,97313.88
2018-06-25T10:34:30.969Z,97312.30
2018-06-25T10:37:01.420Z,97310.13
2018-06-25T10:39:31.716Z,97304.78
2018-06-25T10:42:02.031Z,97302.84
2018-06-25T10:44:32.487Z,97306.02
2018-06-25T10:47:02.809Z,97292.39
2018-06-25T10:49:33.412Z,97290.04
2018-06-25T10:52:04.624Z,97287.34
2018-06-25T10:54:35.194Z,97285.80
2018-06-25T10:57:05.627Z,97283.67
2018-06-25T10:59:36.611Z,97276.14
2018-06-25T11:02:07.823Z,97284.39
2018-06-25T11:04:39.013Z,97285.06
2018-06-25T11:07:09.487Z,97284.34
2018-06-25T11:09:39.723Z,97288.92
2018-06-25T11:12:09.943Z,97284.95
2018-06-25T11:14:40.927Z,97286.02
2018-06-25T11:17:11.304Z,97288.18
2018-06-25T11:19:41.987Z,97280.63
2018-06-25T11:22:12.681Z,97278.39
2018-06-25T11:24:43.752Z,97270.28
2018-06-25T11:27:14.926Z,97267.66
2018-06-25T11:29:45.541Z,97266.97
2018-06-25T11:32:15.789Z,97270.53
2018-06-25T11:34:47.100Z,97264.00
2018-06-25T11:37:18.301Z,97265.41
2018-06-25T11:39:48.606Z,97269.83
2018-06-25T11:42:20.157Z,97270.91
2018-06-25T11:44:51.219Z,97273.43
2018-06-25T11:47:21.924Z,97275.97
2018-06-25T11:49:53.242Z,97281.92
2018-06-25T11:52:23.986Z,97279.77
2018-06-25T11:54:54.785Z,97280.33
2018-06-25T11:57:25.099Z,97281.80
2018-06-25T11:59:55.660Z,97276.42
2018-06-25T12:02:26.261Z,97274.63
2018-06-25T12:04:56.753Z,97278.67
2018-06-25T12:07:27.352Z,97284.83
2018-06-25T12:09:59.083Z,97279.34
2018-06-25T12:12:29.892Z,97282.22
2018-06-25T12:15:00.517Z,97285.39
2018-06-25T12:17:31.059Z,97296.03
2018-06-25T12:20:02.021Z,97290.48
2018-06-25T12:22:33.036Z,97296.89
2018-06-25T12:25:04.281Z,97285.95
2018-06-25T12:27:35.039Z,97288.55
2018-06-25T12:30:06.959Z,97286.13
2018-06-25T12:32:38.667Z,97293.17
2018-06-25T12:35:09.824Z,97296.64
2018-06-25T12:37:41.044Z,97308.37
2018-06-25T12:40:29.577Z,97309.44
2018-06-25T12:43:00.002Z,97314.45
2018-06-25T12:45:30.733Z,97315.89
2018-06-25T12:48:02.438Z,97317.92
2018-06-25T12:50:43.477Z,97324.60
2018-06-25T12:53:14.221Z,97326.78
2018-06-25T12:55:45.115Z,97326.61
2018-06-25T12:58:16.126Z,97341.78
2018-06-25T13:10:04.981Z,97353.00
2018-06-25T13:12:35.509Z,97359.73
2018-06-25T13:15:15.127Z,97355.82
2018-06-25T13:17:50.971Z,97367.67
2018-06-25T13:20:24.165Z,97366.62
2018-06-25T13:22:57.350Z,97372.68
2018-06-25T13:25:52.802Z,97406.65
2018-06-25T13:28:25.697Z,97424.70
2018-06-25T13:30:57.127Z,97433.55
2018-06-25T13:33:28.023Z,97448.99
2018-06-25T13:36:05.681Z,97452.15
2018-06-25T13:38:36.470Z,97468.17
2018-06-25T13:41:07.166Z,97468.46
2018-06-25T13:43:37.999Z,97472.19
2018-06-25T13:46:16.056Z,97473.99
2018-06-25T13:48:46.446Z,97475.39
2018-06-25T13:51:16.847Z,97474.76
2018-06-25T13:53:47.199Z,97485.41
2018-06-25T13:56:18.607Z,97493.02
2018-06-25T13:58:49.836Z,97494.42
2018-06-25T14:01:22.273Z,97512.38
2018-06-25T14:03:52.461Z,97511.33
2018-06-25T14:06:23.238Z,97505.34
2018-06-25T14:09:00.928Z,97513.22
2018-06-25T14:11:38.657Z,97516.20
2018-06-25T14:14:10.039Z,97516.20
2018-06-25T14:16:40.565Z,97515.66
2018-06-25T14:19:11.032Z,97524.61
2018-06-25T14:21:41.669Z,97517.81
2018-06-25T14:24:17.268Z,97524.06
2018-06-25T14:26:47.806Z,97517.81
2018-06-25T14:29:23.280Z,97514.56
2018-06-25T14:31:58.045Z,97528.41
2018-06-25T14:34:29.994Z,97505.32
2018-06-25T14:37:01.373Z,97522.70
2018-06-25T14:39:31.809Z,97522.16
2018-06-25T14:42:03.130Z,97523.56
2018-06-25T14:44:33.468Z,97517.86
2018-06-25T14:47:18.686Z,97517.30
2018-06-25T14:49:49.381Z,97510.53
2018-06-25T14:52:21.604Z,97512.94
2018-06-25T14:54:51.869Z,97504.55
2018-06-25T14:57:22.594Z,97511.05
2018-06-25T14:59:54.597Z,97518.64
2018-06-25T15:02:25.297Z,97514.00
2018-06-25T15:05:24.834Z,97512.67
2018-06-25T15:08:02.866Z,97508.85
2018-06-25T15:10:33.395Z,97510.50
2018-06-25T15:34:01.064Z,97485.10
2018-06-25T15:36:32.161Z,97483.21
2018-06-25T15:39:04.049Z,97478.61
2018-06-25T15:41:34.593Z,97477.22
2018-06-25T15:44:05.924Z,97469.07
2018-06-25T15:46:36.606Z,97463.92
2018-06-25T15:49:08.314Z,97466.86
2018-06-25T15:51:38.644Z,97462.56
2018-06-25T15:54:09.571Z,97455.07
2018-06-25T15:56:40.038Z,97454.53
2018-06-25T15:59:10.954Z,97456.43
2018-06-25T16:01:41.474Z,97452.64
2018-06-25T16:04:12.100Z,97444.12
2018-06-25T16:06:42.757Z,97444.91
2018-06-25T16:09:13.509Z,97451.67
2018-06-25T16:11:44.777Z,97448.08
2018-06-25T16:14:15.388Z,97446.97
2018-06-25T16:16:45.877Z,97455.70
2018-06-25T16:19:16.539Z,97449.07
2018-06-25T16:21:47.006Z,97448.28
2018-06-25T16:24:17.724Z,97451.79
2018-06-25T16:26:48.161Z,97450.22
2018-06-25T16:29:41.942Z,97453.69
2018-06-25T16:32:13.514Z,97457.42
2018-06-25T16:34:44.206Z,97456.69
2018-06-25T16:37:14.586Z,97456.07
2018-06-25T16:39:45.396Z,97463.48
2018-06-25T16:42:17.337Z,97460.73
2018-06-25T16:44:48.444Z,97464.55
2018-06-25T16:47:19.109Z,97465.29
2018-06-25T16:49:49.807Z,97466.22
2018-06-25T16:52:20.494Z,97470.58
2018-06-25T16:54:51.291Z,97465.13
2018-06-25T16:57:21.843Z,97466.10
2018-06-25T16:59:52.479Z,97474.50
2018-06-25T17:02:22.990Z,97478.04
2018-06-25T17:05:13.866Z,97472.86
2018-06-25T17:07:49.069Z,97473.38
2018-06-25T17:10:24.890Z,97471.44
2018-06-25T17:12:56.455Z,97469.23
2018-06-25T17:15:27.321Z,97467.06
2018-06-25T17:17:58.054Z,97471.37
2018-06-25T17:20:29.285Z,97472.02
2018-06-25T17:22:59.954Z,97467.52
2018-06-25T17:25:31.504Z,97470.31
2018-06-25T17:28:02.431Z,97466.46
2018-06-25T17:30:33.284Z,97465.03
2018-06-25T17:33:03.725Z,97461.55
2018-06-25T17:35:34.306Z,97462.80
2018-06-25T17:38:04.812Z,97468.72
2018-06-25T17:40:36.406Z,97472.25
2018-06-25T17:43:07.028Z,97468.40
2018-06-25T17:45:37.699Z,97471.02
2018-06-25T17:48:38.454Z,97475.94
2018-06-25T17:51:09.362Z,97468.06
2018-06-25T17:53:39.717Z,97471.66
2018-06-25T17:56:10.251Z,97449.95
2018-06-25T17:58:40.577Z,97472.44
2018-06-25T18:01:10.912Z,97471.61
2018-06-25T18:03:41.489Z,97476.53
2018-06-25T18:06:12.939Z,97472.08
2018-06-25T18:08:43.739Z,97472.45
2018-06-25T18:11:13.976Z,97470.20
2018-06-25T18:13:47.465Z,97473.33
2018-06-25T18:16:18.534Z,97472.55
2018-06-25T18:18:49.974Z,97477.56
2018-06-25T18:21:20.378Z,97478.34
2018-06-25T18:23:50.893Z,97477.16
2018-06-25T18:26:21.782Z,97477.45
2018-06-25T18:28:55.053Z,97476.11
2018-06-25T18:31:27.694Z,97482.38
2018-06-25T18:33:58.320Z,97481.83
2018-06-25T18:36:28.752Z,97481.73
2018-06-25T18:38:59.363Z,97482.27
2018-06-25T18:41:29.763Z,97474.05
2018-06-25T18:44:00.203Z,97482.80
2018-06-25T18:46:30.464Z,97483.92
2018-06-25T18:49:00.743Z,97486.46
2018-06-25T18:51:31.470Z,97487.33
2018-06-25T18:54:02.091Z,97491.45
2018-06-25T18:56:33.150Z,97492.58
2018-06-25T18:59:04.028Z,97491.52
2018-06-25T19:01:35.571Z,97482.83
2018-06-25T19:04:06.216Z,97496.45
2018-06-25T19:06:38.162Z,97496.23
2018-06-25T19:09:10.949Z,97494.43
2018-06-25T19:11:41.654Z,97496.95
2018-06-25T19:14:12.046Z,97496.70
2018-06-25T19:16:43.021Z,97499.74
2018-06-25T19:19:13.514Z,97501.85
2018-06-25T19:21:44.919Z,97502.95
2018-06-25T19:24:15.243Z,97506.57
2018-06-25T19:26:46.244Z,97510.40
2018-06-25T19:29:17.052Z,97516.66
2018-06-25T19:31:48.216Z,97523.80
2018-06-25T19:34:29.854Z,97529.21
2018-06-25T19:37:01.259Z,97530.86
2018-06-25T19:39:31.935Z,97529.47
2018-06-25T19:42:03.201Z,97534.36
2018-06-25T19:44:34.174Z,97526.49
2018-06-25T19:47:04.843Z,97544.44
2018-06-25T19:49:36.614Z,97539.03
2018-06-25T19:52:07.544Z,97551.27
2018-06-25T19:54:38.971Z,97551.55
2018-06-25T19:57:10.068Z,97548.83
2018-06-25T19:59:40.681Z,97557.52
2018-06-25T20:02:11.713Z,97563.52
2018-06-25T20:04:42.536Z,97571.72
2018-06-25T20:07:13.556Z,97573.08
2018-06-25T20:09:44.166Z,97578.80
2018-06-25T20:12:17.636Z,97578.28
2018-06-25T20:14:48.534Z,97568.80
2018-06-25T20:17:20.082Z,97569.08
2018-06-25T20:19:50.768Z,97563.89
2018-06-25T20:22:24.570Z,97568.22
2018-06-25T20:24:57.156Z,97571.75
2018-06-25T20:27:29.641Z,97576.13
2018-06-25T20:30:00.224Z,97576.90
2018-06-25T20:32:31.552Z,97581.84
2018-06-25T20:35:02.369Z,97584.52
2018-06-25T20:37:33.549Z,97582.92
2018-06-25T20:40:16.104Z,97587.82
2018-06-25T20:42:51.736Z,97582.14
2018-06-25T20:45:25.851Z,97588.13
2018-06-25T20:47:57.049Z,97588.11
2018-06-25T20:50:27.432Z,97587.56
2018-06-25T20:52:58.674Z,97589.18
2018-06-25T20:55:29.795Z,97591.34
2018-06-25T20:58:01.339Z,97588.91
2018-06-25T21:00:33.622Z,97588.09
2018-06-25T21:03:06.231Z,97597.34
2018-06-25T21:05:36.846Z,97593.83
2018-06-25T21:08:08.897Z,97600.61
2018-06-25T21:10:40.867Z,97590.30
2018-06-25T21:13:11.997Z,97586.53
2018-06-25T21:15:44.595Z,97596.01
2018-06-25T21:18:17.757Z,97594.41
2018-06-25T21:20:49.126Z,97598.15
2018-06-25T21:23:20.540Z,97596.26
2018-06-25T21:25:51.121Z,97591.92
2018-06-25T21:28:23.680Z,97591.13
2018-06-25T21:33:55.420Z,97596.30
2018-06-25T21:36:26.738Z,97605.52
2018-06-25T21:38:58.738Z,97598.45
2018-06-25T21:41:29.892Z,97595.22
2018-06-25T21:44:00.836Z,97589.52
2018-06-25T21:46:32.188Z,97603.36
2018-06-25T21:49:03.568Z,97599.84
2018-06-25T21:51:34.190Z,97605.53
2018-06-25T21:54:05.344Z,97609.06
2018-06-25T21:56:35.913Z,97615.01
2018-06-25T21:59:07.426Z,97616.64
2018-06-25T22:01:38.834Z,97610.66
2018-06-25T22:04:09.866Z,97613.66
2018-06-25T22:06:40.391Z,97618.81
2018-06-25T22:09:10.890Z,97622.31
2018-06-25T22:11:41.184Z,97619.85
2018-06-25T22:14:11.674Z,97619.06
2018-06-25T22:23:07.883Z,97623.86
2018-06-25T22:25:38.982Z,97628.13
2018-06-25T22:28:09.900Z,97624.27
2018-06-25T22:30:42.104Z,97622.92
2018-06-25T22:33:13.371Z,97624.84
2018-06-25T22:36:03.281Z,97631.13
2018-06-25T22:38:37.021Z,97636.75
2018-06-25T22:41:08.047Z,97631.55
2018-06-25T22:43:44.077Z,97631.89
2018-06-25T22:46:19.758Z,97631.00
2018-06-25T22:48:50.731Z,97636.88
2018-06-25T22:51:21.840Z,97626.27
2018-06-25T22:53:52.624Z,97626.70
2018-06-25T22:56:23.696Z,97626.89
2018-06-25T22:59:01.532Z,97618.73
2018-06-25T23:01:33.439Z,97624.67
2018-06-25T23:04:06.172Z,97630.94
2018-06-25T23:06:37.360Z,97627.16
2018-06-25T23:09:16.724Z,97627.19
2018-06-25T23:11:47.558Z,97628.06
2018-06-25T23:14:18.737Z,97619.98
2018-06-25T23:22:26.426Z,97614.56
2018-06-25T23:24:56.534Z,97629.16
2018-06-25T23:27:26.537Z,97618.84
2018-06-25T23:29:56.397Z,97613.91
2018-06-25T23:32:26.413Z,97625.57
2018-06-25T23:34:56.382Z,97623.70
2018-06-25T23:37:47.261Z,97620.98
2018-06-25T23:40:20.897Z,97625.02
2018-06-25T23:42:51.107Z,97622.30
2018-06-25T23:45:21.305Z,97622.05
2018-06-25T23:47:51.457Z,97617.97
2018-06-25T23:50:22.603Z,97618.02
2018-06-25T23:52:53.059Z,97622.63
2018-06-25T23:55:22.958Z,97618.86
2018-06-25T23:57:53.156Z,97623.97
